sensor_id;sensor_type;location;lat;lon;timestamp;P1;durP1;ratioP1;P2;durP2;ratioP2
20458;SDS011;10388;52.314;7.938;2022-09-12T03:34:27;13.40;;;10.43;;
20458;SDS011;10388;52.314;7.938;2022-09-12T03:37:59;13.93;;;10.27;;
20458;SDS011;10388;52.314;7.938;2022-09-12T03:43:49;14.67;;;10.97;;
20458;SDS011;10388;52.314;7.938;2022-09-12T03:53:21;13.53;;;10.37;;
20458;SDS011;10388;52.314;7.938;2022-09-12T03:55:51;15.60;;;10.90;;
20458;SDS011;10388;52.314;7.938;2022-09-12T03:58:22;13.50;;;10.73;;
20458;SDS011;10388;52.314;7.938;2022-09-12T04:00:53;12.57;;;11.13;;
20458;SDS011;10388;52.314;7.938;2022-09-12T04:03:24;12.07;;;10.13;;
20458;SDS011;10388;52.314;7.938;2022-09-12T04:05:56;13.33;;;10.03;;
20458;SDS011;10388;52.314;7.938;2022-09-12T04:08:26;13.10;;;10.33;;
20458;SDS011;10388;52.314;7.938;2022-09-12T04:11:01;12.53;;;9.60;;
20458;SDS011;10388;52.314;7.938;2022-09-12T04:13:34;11.50;;;9.80;;
20458;SDS011;10388;52.314;7.938;2022-09-12T04:16:05;13.00;;;10.27;;
20458;SDS011;10388;52.314;7.938;2022-09-12T04:18:36;12.80;;;9.47;;
20458;SDS011;10388;52.314;7.938;2022-09-12T04:21:12;11.40;;;9.53;;
20458;SDS011;10388;52.314;7.938;2022-09-12T04:23:47;13.23;;;10.70;;
20458;SDS011;10388;52.314;7.938;2022-09-12T04:26:18;14.37;;;10.10;;
20458;SDS011;10388;52.314;7.938;2022-09-12T04:28:52;11.97;;;9.60;;
20458;SDS011;10388;52.314;7.938;2022-09-12T04:31:23;11.70;;;9.47;;
20458;SDS011;10388;52.314;7.938;2022-09-12T04:33:55;13.83;;;10.93;;
20458;SDS011;10388;52.314;7.938;2022-09-12T04:36:27;12.17;;;10.00;;
20458;SDS011;10388;52.314;7.938;2022-09-12T04:38:59;10.93;;;8.93;;
20458;SDS011;10388;52.314;7.938;2022-09-12T04:41:31;10.90;;;9.10;;
20458;SDS011;10388;52.314;7.938;2022-09-12T04:44:05;10.90;;;8.90;;
20458;SDS011;10388;52.314;7.938;2022-09-12T04:46:38;13.87;;;10.03;;
20458;SDS011;10388;52.314;7.938;2022-09-12T04:49:13;15.50;;;10.03;;
20458;SDS011;10388;52.314;7.938;2022-09-12T04:51:48;14.50;;;9.83;;
20458;SDS011;10388;52.314;7.938;2022-09-12T04:54:22;14.57;;;10.87;;
20458;SDS011;10388;52.314;7.938;2022-09-12T04:56:53;14.40;;;11.30;;
20458;SDS011;10388;52.314;7.938;2022-09-12T04:59:24;13.07;;;10.90;;
20458;SDS011;10388;52.314;7.938;2022-09-12T05:01:55;13.07;;;10.77;;
20458;SDS011;10388;52.314;7.938;2022-09-12T05:04:25;15.67;;;12.50;;
20458;SDS011;10388;52.314;7.938;2022-09-12T05:06:56;18.03;;;14.53;;
20458;SDS011;10388;52.314;7.938;2022-09-12T05:09:27;17.77;;;12.17;;
20458;SDS011;10388;52.314;7.938;2022-09-12T05:11:58;18.23;;;13.63;;
20458;SDS011;10388;52.314;7.938;2022-09-12T05:14:28;17.80;;;13.70;;
20458;SDS011;10388;52.314;7.938;2022-09-12T05:17:01;22.17;;;15.00;;
20458;SDS011;10388;52.314;7.938;2022-09-12T05:19:32;24.70;;;15.40;;
20458;SDS011;10388;52.314;7.938;2022-09-12T05:22:03;27.27;;;15.70;;
20458;SDS011;10388;52.314;7.938;2022-09-12T05:24:35;20.20;;;15.67;;
20458;SDS011;10388;52.314;7.938;2022-09-12T05:27:08;29.00;;;15.57;;
20458;SDS011;10388;52.314;7.938;2022-09-12T05:29:39;21.30;;;14.63;;
20458;SDS011;10388;52.314;7.938;2022-09-12T05:32:09;19.83;;;14.70;;
20458;SDS011;10388;52.314;7.938;2022-09-12T05:34:41;22.33;;;14.67;;
20458;SDS011;10388;52.314;7.938;2022-09-12T05:37:11;23.33;;;16.40;;
20458;SDS011;10388;52.314;7.938;2022-09-12T05:39:42;21.43;;;15.97;;
20458;SDS011;10388;52.314;7.938;2022-09-12T05:42:12;23.70;;;15.13;;
20458;SDS011;10388;52.314;7.938;2022-09-12T05:44:43;22.30;;;14.67;;
20458;SDS011;10388;52.314;7.938;2022-09-12T05:47:14;20.17;;;15.00;;
20458;SDS011;10388;52.314;7.938;2022-09-12T05:49:46;23.87;;;16.60;;
20458;SDS011;10388;52.314;7.938;2022-09-12T05:52:17;22.00;;;15.53;;
20458;SDS011;10388;52.314;7.938;2022-09-12T05:54:47;21.27;;;15.47;;
20458;SDS011;10388;52.314;7.938;2022-09-12T05:57:18;22.13;;;16.70;;
20458;SDS011;10388;52.314;7.938;2022-09-12T05:59:48;23.83;;;15.37;;
20458;SDS011;10388;52.314;7.938;2022-09-12T06:02:19;26.13;;;17.37;;
20458;SDS011;10388;52.314;7.938;2022-09-12T06:04:50;21.60;;;16.63;;
20458;SDS011;10388;52.314;7.938;2022-09-12T06:07:21;26.30;;;17.57;;
20458;SDS011;10388;52.314;7.938;2022-09-12T06:09:51;21.33;;;16.37;;
20458;SDS011;10388;52.314;7.938;2022-09-12T06:12:22;24.43;;;16.63;;
20458;SDS011;10388;52.314;7.938;2022-09-12T06:14:53;23.23;;;16.90;;
20458;SDS011;10388;52.314;7.938;2022-09-12T06:17:23;21.97;;;16.47;;
20458;SDS011;10388;52.314;7.938;2022-09-12T06:19:54;23.00;;;16.63;;
20458;SDS011;10388;52.314;7.938;2022-09-12T06:22:24;22.57;;;15.57;;
20458;SDS011;10388;52.314;7.938;2022-09-12T06:24:54;22.97;;;16.67;;
20458;SDS011;10388;52.314;7.938;2022-09-12T06:27:25;24.50;;;16.30;;
20458;SDS011;10388;52.314;7.938;2022-09-12T06:29:55;22.53;;;16.43;;
20458;SDS011;10388;52.314;7.938;2022-09-12T06:32:28;22.03;;;15.13;;
20458;SDS011;10388;52.314;7.938;2022-09-12T06:34:59;21.67;;;15.07;;
20458;SDS011;10388;52.314;7.938;2022-09-12T06:37:30;19.20;;;13.60;;
20458;SDS011;10388;52.314;7.938;2022-09-12T06:40:01;17.87;;;13.47;;
20458;SDS011;10388;52.314;7.938;2022-09-12T06:42:32;16.30;;;12.83;;
20458;SDS011;10388;52.314;7.938;2022-09-12T06:45:03;15.77;;;11.93;;
20458;SDS011;10388;52.314;7.938;2022-09-12T06:47:33;18.57;;;12.83;;
20458;SDS011;10388;52.314;7.938;2022-09-12T06:50:04;14.60;;;12.37;;
20458;SDS011;10388;52.314;7.938;2022-09-12T06:52:35;18.93;;;13.47;;
20458;SDS011;10388;52.314;7.938;2022-09-12T06:55:06;17.97;;;12.83;;
20458;SDS011;10388;52.314;7.938;2022-09-12T06:57:36;13.97;;;11.37;;
20458;SDS011;10388;52.314;7.938;2022-09-12T07:00:08;17.60;;;11.83;;
20458;SDS011;10388;52.314;7.938;2022-09-12T07:02:39;15.40;;;12.47;;
20458;SDS011;10388;52.314;7.938;2022-09-12T07:05:09;17.47;;;13.07;;
20458;SDS011;10388;52.314;7.938;2022-09-12T07:07:40;15.37;;;11.97;;
20458;SDS011;10388;52.314;7.938;2022-09-12T07:10:11;14.33;;;12.30;;
20458;SDS011;10388;52.314;7.938;2022-09-12T07:12:41;17.20;;;12.13;;
20458;SDS011;10388;52.314;7.938;2022-09-12T07:15:12;15.77;;;12.20;;
20458;SDS011;10388;52.314;7.938;2022-09-12T07:17:42;13.60;;;11.67;;
20458;SDS011;10388;52.314;7.938;2022-09-12T07:20:13;14.87;;;12.00;;
20458;SDS011;10388;52.314;7.938;2022-09-12T07:22:43;13.80;;;9.73;;
20458;SDS011;10388;52.314;7.938;2022-09-12T07:25:14;14.27;;;11.00;;
20458;SDS011;10388;52.314;7.938;2022-09-12T07:27:44;12.30;;;10.90;;
20458;SDS011;10388;52.314;7.938;2022-09-12T07:30:15;15.47;;;10.83;;
20458;SDS011;10388;52.314;7.938;2022-09-12T07:32:46;13.03;;;10.57;;
20458;SDS011;10388;52.314;7.938;2022-09-12T07:35:20;12.23;;;9.93;;
20458;SDS011;10388;52.314;7.938;2022-09-12T07:37:51;12.43;;;9.97;;
20458;SDS011;10388;52.314;7.938;2022-09-12T07:40:21;9.93;;;8.90;;
20458;SDS011;10388;52.314;7.938;2022-09-12T07:42:52;11.50;;;9.07;;
20458;SDS011;10388;52.314;7.938;2022-09-12T07:45:22;11.73;;;9.57;;
20458;SDS011;10388;52.314;7.938;2022-09-12T07:47:53;11.20;;;8.83;;
20458;SDS011;10388;52.314;7.938;2022-09-12T07:50:23;12.30;;;8.50;;
20458;SDS011;10388;52.314;7.938;2022-09-12T07:52:54;9.47;;;7.73;;
20458;SDS011;10388;52.314;7.938;2022-09-12T07:55:25;11.93;;;8.83;;
20458;SDS011;10388;52.314;7.938;2022-09-12T07:57:55;11.83;;;9.10;;
20458;SDS011;10388;52.314;7.938;2022-09-12T08:00:26;13.43;;;7.90;;
20458;SDS011;10388;52.314;7.938;2022-09-12T08:03:04;9.50;;;7.77;;
20458;SDS011;10388;52.314;7.938;2022-09-12T08:05:36;12.33;;;8.17;;
20458;SDS011;10388;52.314;7.938;2022-09-12T08:08:06;11.03;;;7.90;;
20458;SDS011;10388;52.314;7.938;2022-09-12T08:10:37;13.33;;;7.57;;
20458;SDS011;10388;52.314;7.938;2022-09-12T08:13:08;10.40;;;7.90;;
20458;SDS011;10388;52.314;7.938;2022-09-12T08:15:38;11.63;;;7.20;;
20458;SDS011;10388;52.314;7.938;2022-09-12T08:18:09;8.70;;;6.87;;
20458;SDS011;10388;52.314;7.938;2022-09-12T08:20:39;8.87;;;6.90;;
20458;SDS011;10388;52.314;7.938;2022-09-12T08:23:09;7.70;;;6.27;;
20458;SDS011;10388;52.314;7.938;2022-09-12T08:25:40;8.23;;;6.50;;
20458;SDS011;10388;52.314;7.938;2022-09-12T08:28:11;8.30;;;6.30;;
20458;SDS011;10388;52.314;7.938;2022-09-12T08:30:42;7.80;;;6.20;;
20458;SDS011;10388;52.314;7.938;2022-09-12T08:33:12;8.20;;;6.50;;
20458;SDS011;10388;52.314;7.938;2022-09-12T08:35:44;8.07;;;6.40;;
20458;SDS011;10388;52.314;7.938;2022-09-12T08:38:14;8.50;;;5.67;;
20458;SDS011;10388;52.314;7.938;2022-09-12T08:40:49;6.27;;;5.13;;
20458;SDS011;10388;52.314;7.938;2022-09-12T08:46:14;5.77;;;4.83;;
20458;SDS011;10388;52.314;7.938;2022-09-12T08:48:48;5.27;;;4.60;;
20458;SDS011;10388;52.314;7.938;2022-09-12T08:51:18;5.40;;;4.63;;
20458;SDS011;10388;52.314;7.938;2022-09-12T08:53:50;6.20;;;4.70;;
20458;SDS011;10388;52.314;7.938;2022-09-12T08:56:23;5.47;;;4.47;;
20458;SDS011;10388;52.314;7.938;2022-09-12T08:58:57;4.73;;;4.13;;
20458;SDS011;10388;52.314;7.938;2022-09-12T09:01:33;7.17;;;4.37;;
20458;SDS011;10388;52.314;7.938;2022-09-12T09:04:14;6.33;;;4.90;;
20458;SDS011;10388;52.314;7.938;2022-09-12T09:07:09;7.20;;;4.83;;
20458;SDS011;10388;52.314;7.938;2022-09-12T09:15:38;6.20;;;5.07;;
20458;SDS011;10388;52.314;7.938;2022-09-12T09:18:23;5.97;;;4.77;;
20458;SDS011;10388;52.314;7.938;2022-09-12T09:21:01;5.40;;;4.43;;
20458;SDS011;10388;52.314;7.938;2022-09-12T09:24:01;5.30;;;4.80;;
20458;SDS011;10388;52.314;7.938;2022-09-12T09:26:38;7.47;;;5.57;;
20458;SDS011;10388;52.314;7.938;2022-09-12T09:29:21;8.67;;;5.50;;
20458;SDS011;10388;52.314;7.938;2022-09-12T09:31:57;5.10;;;4.60;;
20458;SDS011;10388;52.314;7.938;2022-09-12T09:34:34;5.70;;;5.10;;
20458;SDS011;10388;52.314;7.938;2022-09-12T09:37:12;6.03;;;4.87;;
20458;SDS011;10388;52.314;7.938;2022-09-12T09:42:47;5.40;;;4.60;;
20458;SDS011;10388;52.314;7.938;2022-09-12T09:45:32;6.57;;;4.67;;
20458;SDS011;10388;52.314;7.938;2022-09-12T09:50:39;6.47;;;5.30;;
20458;SDS011;10388;52.314;7.938;2022-09-12T09:53:27;5.63;;;4.83;;
20458;SDS011;10388;52.314;7.938;2022-09-12T09:56:08;6.23;;;5.23;;
20458;SDS011;10388;52.314;7.938;2022-09-12T09:58:47;6.90;;;5.53;;
20458;SDS011;10388;52.314;7.938;2022-09-12T10:01:18;5.93;;;4.70;;
20458;SDS011;10388;52.314;7.938;2022-09-12T10:03:49;6.23;;;5.17;;
20458;SDS011;10388;52.314;7.938;2022-09-12T10:06:25;5.67;;;5.00;;
20458;SDS011;10388;52.314;7.938;2022-09-12T10:09:45;6.80;;;4.57;;
20458;SDS011;10388;52.314;7.938;2022-09-12T10:11:59;5.77;;;4.27;;
20458;SDS011;10388;52.314;7.938;2022-09-12T10:14:37;6.83;;;5.03;;
20458;SDS011;10388;52.314;7.938;2022-09-12T10:20:34;5.67;;;4.60;;
20458;SDS011;10388;52.314;7.938;2022-09-12T10:25:51;5.43;;;4.80;;
20458;SDS011;10388;52.314;7.938;2022-09-12T10:28:36;7.70;;;5.60;;
20458;SDS011;10388;52.314;7.938;2022-09-12T10:31:12;7.37;;;5.37;;
20458;SDS011;10388;52.314;7.938;2022-09-12T10:33:46;8.07;;;5.27;;
20458;SDS011;10388;52.314;7.938;2022-09-12T10:36:21;10.83;;;5.60;;
20458;SDS011;10388;52.314;7.938;2022-09-12T10:38:54;7.13;;;5.57;;
20458;SDS011;10388;52.314;7.938;2022-09-12T10:41:33;7.80;;;5.70;;
20458;SDS011;10388;52.314;7.938;2022-09-12T10:44:07;7.70;;;6.07;;
20458;SDS011;10388;52.314;7.938;2022-09-12T10:46:43;6.50;;;5.43;;
20458;SDS011;10388;52.314;7.938;2022-09-12T10:49:22;8.50;;;6.27;;
20458;SDS011;10388;52.314;7.938;2022-09-12T10:51:55;6.20;;;5.60;;
20458;SDS011;10388;52.314;7.938;2022-09-12T10:54:28;7.47;;;5.93;;
20458;SDS011;10388;52.314;7.938;2022-09-12T11:05:44;7.70;;;6.07;;
20458;SDS011;10388;52.314;7.938;2022-09-12T11:17:18;8.33;;;6.50;;
20458;SDS011;10388;52.314;7.938;2022-09-12T11:25:30;9.00;;;6.77;;
20458;SDS011;10388;52.314;7.938;2022-09-12T11:28:29;7.27;;;5.73;;
20458;SDS011;10388;52.314;7.938;2022-09-12T11:34:10;9.03;;;6.70;;
20458;SDS011;10388;52.314;7.938;2022-09-12T11:39:34;10.10;;;6.20;;
20458;SDS011;10388;52.314;7.938;2022-09-12T11:42:12;8.50;;;6.30;;
20458;SDS011;10388;52.314;7.938;2022-09-12T11:44:58;8.40;;;5.70;;
20458;SDS011;10388;52.314;7.938;2022-09-12T11:47:51;6.57;;;5.17;;
20458;SDS011;10388;52.314;7.938;2022-09-12T11:50:28;6.43;;;5.40;;
20458;SDS011;10388;52.314;7.938;2022-09-12T11:53:17;6.90;;;6.20;;
20458;SDS011;10388;52.314;7.938;2022-09-12T11:55:54;7.53;;;5.57;;
20458;SDS011;10388;52.314;7.938;2022-09-12T11:58:33;6.67;;;5.07;;
20458;SDS011;10388;52.314;7.938;2022-09-12T12:01:12;7.00;;;5.57;;
20458;SDS011;10388;52.314;7.938;2022-09-12T12:03:48;5.53;;;4.77;;
20458;SDS011;10388;52.314;7.938;2022-09-12T12:06:31;6.27;;;5.57;;
20458;SDS011;10388;52.314;7.938;2022-09-12T12:09:09;5.00;;;4.43;;
20458;SDS011;10388;52.314;7.938;2022-09-12T12:11:42;5.70;;;4.03;;
20458;SDS011;10388;52.314;7.938;2022-09-12T12:14:19;3.93;;;3.47;;
20458;SDS011;10388;52.314;7.938;2022-09-12T12:16:57;4.37;;;3.80;;
20458;SDS011;10388;52.314;7.938;2022-09-12T12:19:35;7.73;;;4.20;;
20458;SDS011;10388;52.314;7.938;2022-09-12T12:22:07;4.90;;;3.80;;
20458;SDS011;10388;52.314;7.938;2022-09-12T12:25:05;4.30;;;3.90;;
20458;SDS011;10388;52.314;7.938;2022-09-12T12:35:42;4.20;;;3.60;;
20458;SDS011;10388;52.314;7.938;2022-09-12T12:43:51;4.37;;;3.80;;
20458;SDS011;10388;52.314;7.938;2022-09-12T12:46:25;5.57;;;3.57;;
20458;SDS011;10388;52.314;7.938;2022-09-12T12:49:01;3.53;;;3.23;;
20458;SDS011;10388;52.314;7.938;2022-09-12T12:51:55;4.27;;;3.40;;
20458;SDS011;10388;52.314;7.938;2022-09-12T12:57:17;3.60;;;3.00;;
20458;SDS011;10388;52.314;7.938;2022-09-12T13:00:07;5.73;;;3.93;;
20458;SDS011;10388;52.314;7.938;2022-09-12T13:02:59;4.33;;;3.70;;
20458;SDS011;10388;52.314;7.938;2022-09-12T13:10:49;4.10;;;3.53;;
20458;SDS011;10388;52.314;7.938;2022-09-12T13:13:23;5.53;;;3.80;;
20458;SDS011;10388;52.314;7.938;2022-09-12T13:16:10;5.80;;;3.30;;
20458;SDS011;10388;52.314;7.938;2022-09-12T13:19:00;4.57;;;3.60;;
20458;SDS011;10388;52.314;7.938;2022-09-12T13:24:33;4.37;;;3.43;;
20458;SDS011;10388;52.314;7.938;2022-09-12T13:27:20;5.43;;;4.23;;
20458;SDS011;10388;52.314;7.938;2022-09-12T13:30:05;9.70;;;3.57;;
20458;SDS011;10388;52.314;7.938;2022-09-12T13:32:45;5.57;;;3.40;;
20458;SDS011;10388;52.314;7.938;2022-09-12T13:35:24;6.33;;;3.37;;
20458;SDS011;10388;52.314;7.938;2022-09-12T13:43:52;3.07;;;2.77;;
20458;SDS011;10388;52.314;7.938;2022-09-12T13:46:27;3.30;;;3.00;;
20458;SDS011;10388;52.314;7.938;2022-09-12T13:49:05;4.97;;;3.03;;
20458;SDS011;10388;52.314;7.938;2022-09-12T13:51:57;4.43;;;2.90;;
20458;SDS011;10388;52.314;7.938;2022-09-12T13:54:30;3.10;;;2.80;;
20458;SDS011;10388;52.314;7.938;2022-09-12T13:57:04;3.10;;;2.57;;
20458;SDS011;10388;52.314;7.938;2022-09-12T13:59:38;3.27;;;2.97;;
20458;SDS011;10388;52.314;7.938;2022-09-12T14:02:16;4.90;;;2.70;;
20458;SDS011;10388;52.314;7.938;2022-09-12T14:04:52;3.70;;;2.73;;
20458;SDS011;10388;52.314;7.938;2022-09-12T14:07:42;3.90;;;2.57;;
20458;SDS011;10388;52.314;7.938;2022-09-12T14:10:32;3.20;;;2.80;;
20458;SDS011;10388;52.314;7.938;2022-09-12T14:13:09;4.40;;;2.90;;
20458;SDS011;10388;52.314;7.938;2022-09-12T14:15:43;4.97;;;2.70;;
20458;SDS011;10388;52.314;7.938;2022-09-12T14:18:23;3.23;;;2.93;;
20458;SDS011;10388;52.314;7.938;2022-09-12T14:20:57;2.90;;;2.63;;
20458;SDS011;10388;52.314;7.938;2022-09-12T14:23:40;4.00;;;2.70;;
20458;SDS011;10388;52.314;7.938;2022-09-12T14:26:13;3.27;;;2.87;;
20458;SDS011;10388;52.314;7.938;2022-09-12T14:28:46;2.40;;;2.20;;
20458;SDS011;10388;52.314;7.938;2022-09-12T14:31:24;3.73;;;2.40;;
20458;SDS011;10388;52.314;7.938;2022-09-12T14:36:47;2.90;;;2.70;;
20458;SDS011;10388;52.314;7.938;2022-09-12T14:39:25;3.23;;;2.37;;
20458;SDS011;10388;52.314;7.938;2022-09-12T14:42:10;2.80;;;2.17;;
20458;SDS011;10388;52.314;7.938;2022-09-12T14:44:52;3.03;;;2.10;;
20458;SDS011;10388;52.314;7.938;2022-09-12T14:47:33;2.10;;;1.90;;
20458;SDS011;10388;52.314;7.938;2022-09-12T14:50:15;3.10;;;2.47;;
20458;SDS011;10388;52.314;7.938;2022-09-12T14:55:51;3.30;;;2.37;;
20458;SDS011;10388;52.314;7.938;2022-09-12T14:58:42;7.40;;;2.57;;
20458;SDS011;10388;52.314;7.938;2022-09-12T15:06:19;2.57;;;2.33;;
20458;SDS011;10388;52.314;7.938;2022-09-12T15:08:54;4.27;;;2.60;;
20458;SDS011;10388;52.314;7.938;2022-09-12T15:11:26;3.30;;;2.90;;
20458;SDS011;10388;52.314;7.938;2022-09-12T15:13:57;3.87;;;2.43;;
20458;SDS011;10388;52.314;7.938;2022-09-12T15:16:27;5.37;;;2.70;;
20458;SDS011;10388;52.314;7.938;2022-09-12T15:18:58;5.07;;;2.70;;
20458;SDS011;10388;52.314;7.938;2022-09-12T15:21:28;4.33;;;2.93;;
20458;SDS011;10388;52.314;7.938;2022-09-12T15:23:59;3.20;;;2.70;;
20458;SDS011;10388;52.314;7.938;2022-09-12T15:26:29;3.53;;;2.70;;
20458;SDS011;10388;52.314;7.938;2022-09-12T15:29:00;3.20;;;2.43;;
20458;SDS011;10388;52.314;7.938;2022-09-12T15:31:31;4.07;;;2.50;;
20458;SDS011;10388;52.314;7.938;2022-09-12T15:34:02;3.80;;;2.93;;
20458;SDS011;10388;52.314;7.938;2022-09-12T15:36:32;3.50;;;2.90;;
20458;SDS011;10388;52.314;7.938;2022-09-12T15:39:03;5.67;;;2.97;;
20458;SDS011;10388;52.314;7.938;2022-09-12T15:41:35;4.77;;;2.93;;
20458;SDS011;10388;52.314;7.938;2022-09-12T15:44:09;3.47;;;2.80;;
20458;SDS011;10388;52.314;7.938;2022-09-12T15:46:41;2.73;;;2.50;;
20458;SDS011;10388;52.314;7.938;2022-09-12T15:49:12;3.13;;;2.83;;
20458;SDS011;10388;52.314;7.938;2022-09-12T15:51:43;2.80;;;2.50;;
20458;SDS011;10388;52.314;7.938;2022-09-12T15:54:19;3.27;;;2.60;;
20458;SDS011;10388;52.314;7.938;2022-09-12T15:56:50;2.90;;;2.70;;
20458;SDS011;10388;52.314;7.938;2022-09-12T15:59:21;3.57;;;2.40;;
20458;SDS011;10388;52.314;7.938;2022-09-12T16:01:51;3.10;;;2.80;;
20458;SDS011;10388;52.314;7.938;2022-09-12T16:04:26;3.10;;;2.67;;
20458;SDS011;10388;52.314;7.938;2022-09-12T16:06:57;3.80;;;2.30;;
20458;SDS011;10388;52.314;7.938;2022-09-12T16:09:28;2.90;;;2.70;;
20458;SDS011;10388;52.314;7.938;2022-09-12T16:11:58;2.37;;;2.17;;
20458;SDS011;10388;52.314;7.938;2022-09-12T16:14:29;3.63;;;2.20;;
20458;SDS011;10388;52.314;7.938;2022-09-12T16:17:00;3.47;;;2.90;;
20458;SDS011;10388;52.314;7.938;2022-09-12T16:19:30;2.90;;;2.60;;
20458;SDS011;10388;52.314;7.938;2022-09-12T16:22:01;3.53;;;2.50;;
20458;SDS011;10388;52.314;7.938;2022-09-12T16:24:32;3.00;;;2.30;;
20458;SDS011;10388;52.314;7.938;2022-09-12T16:27:02;4.83;;;2.37;;
20458;SDS011;10388;52.314;7.938;2022-09-12T16:29:33;3.10;;;2.17;;
20458;SDS011;10388;52.314;7.938;2022-09-12T16:32:03;2.57;;;2.00;;
20458;SDS011;10388;52.314;7.938;2022-09-12T16:34:34;2.33;;;2.00;;
20458;SDS011;10388;52.314;7.938;2022-09-12T16:37:04;2.50;;;2.30;;
20458;SDS011;10388;52.314;7.938;2022-09-12T16:39:35;2.23;;;2.03;;
20458;SDS011;10388;52.314;7.938;2022-09-12T16:42:06;2.50;;;2.30;;
20458;SDS011;10388;52.314;7.938;2022-09-12T16:44:36;2.27;;;1.90;;
20458;SDS011;10388;52.314;7.938;2022-09-12T16:47:07;2.53;;;2.10;;
20458;SDS011;10388;52.314;7.938;2022-09-12T16:49:37;3.93;;;2.40;;
20458;SDS011;10388;52.314;7.938;2022-09-12T16:52:08;1.90;;;1.80;;
20458;SDS011;10388;52.314;7.938;2022-09-12T16:54:39;2.27;;;2.07;;
20458;SDS011;10388;52.314;7.938;2022-09-12T16:57:10;2.80;;;1.90;;
20458;SDS011;10388;52.314;7.938;2022-09-12T16:59:41;2.53;;;2.10;;
20458;SDS011;10388;52.314;7.938;2022-09-12T17:02:12;2.00;;;1.90;;
20458;SDS011;10388;52.314;7.938;2022-09-12T17:04:43;2.53;;;2.03;;
20458;SDS011;10388;52.314;7.938;2022-09-12T17:07:13;2.53;;;2.10;;
20458;SDS011;10388;52.314;7.938;2022-09-12T17:09:44;2.90;;;2.00;;
20458;SDS011;10388;52.314;7.938;2022-09-12T17:12:15;2.63;;;2.23;;
20458;SDS011;10388;52.314;7.938;2022-09-12T17:14:46;2.30;;;2.10;;
20458;SDS011;10388;52.314;7.938;2022-09-12T17:17:16;2.23;;;1.97;;
20458;SDS011;10388;52.314;7.938;2022-09-12T17:19:47;3.97;;;2.13;;
20458;SDS011;10388;52.314;7.938;2022-09-12T17:22:17;2.10;;;1.90;;
20458;SDS011;10388;52.314;7.938;2022-09-12T17:24:48;9.77;;;2.60;;
20458;SDS011;10388;52.314;7.938;2022-09-12T17:27:19;12.40;;;3.13;;
20458;SDS011;10388;52.314;7.938;2022-09-12T17:29:49;4.87;;;1.87;;
20458;SDS011;10388;52.314;7.938;2022-09-12T17:32:20;7.60;;;2.17;;
20458;SDS011;10388;52.314;7.938;2022-09-12T17:34:50;18.57;;;3.50;;
20458;SDS011;10388;52.314;7.938;2022-09-12T17:37:21;5.67;;;2.33;;
20458;SDS011;10388;52.314;7.938;2022-09-12T17:39:51;5.80;;;2.80;;
20458;SDS011;10388;52.314;7.938;2022-09-12T17:42:22;5.77;;;2.60;;
20458;SDS011;10388;52.314;7.938;2022-09-12T17:44:53;4.17;;;2.73;;
20458;SDS011;10388;52.314;7.938;2022-09-12T17:47:24;6.27;;;2.63;;
20458;SDS011;10388;52.314;7.938;2022-09-12T17:49:54;4.73;;;2.60;;
20458;SDS011;10388;52.314;7.938;2022-09-12T17:52:25;3.90;;;2.57;;
20458;SDS011;10388;52.314;7.938;2022-09-12T17:54:56;2.67;;;2.47;;
20458;SDS011;10388;52.314;7.938;2022-09-12T17:57:27;3.50;;;2.67;;
20458;SDS011;10388;52.314;7.938;2022-09-12T17:59:58;2.63;;;2.00;;
20458;SDS011;10388;52.314;7.938;2022-09-12T18:02:28;4.30;;;2.50;;
20458;SDS011;10388;52.314;7.938;2022-09-12T18:04:59;2.67;;;2.47;;
20458;SDS011;10388;52.314;7.938;2022-09-12T18:07:31;4.67;;;2.40;;
20458;SDS011;10388;52.314;7.938;2022-09-12T18:10:04;3.00;;;2.70;;
20458;SDS011;10388;52.314;7.938;2022-09-12T18:12:35;4.23;;;2.23;;
20458;SDS011;10388;52.314;7.938;2022-09-12T18:15:06;4.97;;;2.80;;
20458;SDS011;10388;52.314;7.938;2022-09-12T18:17:37;2.73;;;2.53;;
20458;SDS011;10388;52.314;7.938;2022-09-12T18:20:08;4.23;;;2.80;;
20458;SDS011;10388;52.314;7.938;2022-09-12T18:22:39;4.40;;;2.90;;
20458;SDS011;10388;52.314;7.938;2022-09-12T18:25:09;3.40;;;2.43;;
20458;SDS011;10388;52.314;7.938;2022-09-12T18:27:40;3.17;;;2.87;;
20458;SDS011;10388;52.314;7.938;2022-09-12T18:30:11;4.60;;;2.50;;
20458;SDS011;10388;52.314;7.938;2022-09-12T18:32:43;3.80;;;2.73;;
20458;SDS011;10388;52.314;7.938;2022-09-12T18:35:13;4.97;;;3.00;;
20458;SDS011;10388;52.314;7.938;2022-09-12T18:37:44;4.20;;;2.63;;
20458;SDS011;10388;52.314;7.938;2022-09-12T18:40:14;5.10;;;2.83;;
20458;SDS011;10388;52.314;7.938;2022-09-12T18:42:45;4.03;;;2.47;;
20458;SDS011;10388;52.314;7.938;2022-09-12T18:45:15;4.73;;;3.23;;
20458;SDS011;10388;52.314;7.938;2022-09-12T18:47:46;4.33;;;3.30;;
20458;SDS011;10388;52.314;7.938;2022-09-12T18:50:16;3.77;;;3.40;;
20458;SDS011;10388;52.314;7.938;2022-09-12T18:52:47;4.00;;;3.50;;
20458;SDS011;10388;52.314;7.938;2022-09-12T18:55:20;5.90;;;3.20;;
20458;SDS011;10388;52.314;7.938;2022-09-12T18:57:53;5.30;;;3.20;;
20458;SDS011;10388;52.314;7.938;2022-09-12T19:00:24;4.27;;;3.67;;
20458;SDS011;10388;52.314;7.938;2022-09-12T19:02:54;3.83;;;2.90;;
20458;SDS011;10388;52.314;7.938;2022-09-12T19:05:25;8.37;;;3.33;;
20458;SDS011;10388;52.314;7.938;2022-09-12T19:07:57;3.60;;;3.10;;
20458;SDS011;10388;52.314;7.938;2022-09-12T19:10:27;4.73;;;3.60;;
20458;SDS011;10388;52.314;7.938;2022-09-12T19:12:58;6.03;;;3.80;;
20458;SDS011;10388;52.314;7.938;2022-09-12T19:15:28;5.30;;;3.10;;
20458;SDS011;10388;52.314;7.938;2022-09-12T19:17:59;4.80;;;3.47;;
20458;SDS011;10388;52.314;7.938;2022-09-12T19:20:29;3.67;;;3.27;;
20458;SDS011;10388;52.314;7.938;2022-09-12T19:23:00;4.20;;;3.17;;
20458;SDS011;10388;52.314;7.938;2022-09-12T19:25:31;8.47;;;3.70;;
20458;SDS011;10388;52.314;7.938;2022-09-12T19:28:01;5.13;;;3.40;;
20458;SDS011;10388;52.314;7.938;2022-09-12T19:30:32;4.80;;;3.37;;
20458;SDS011;10388;52.314;7.938;2022-09-12T19:33:02;4.23;;;3.53;;
20458;SDS011;10388;52.314;7.938;2022-09-12T19:35:33;4.20;;;3.37;;
20458;SDS011;10388;52.314;7.938;2022-09-12T19:38:03;6.47;;;3.27;;
20458;SDS011;10388;52.314;7.938;2022-09-12T19:40:34;5.97;;;3.60;;
20458;SDS011;10388;52.314;7.938;2022-09-12T19:43:06;4.90;;;3.57;;
20458;SDS011;10388;52.314;7.938;2022-09-12T19:45:37;3.90;;;3.23;;
20458;SDS011;10388;52.314;7.938;2022-09-12T19:48:16;4.33;;;3.70;;
20458;SDS011;10388;52.314;7.938;2022-09-12T19:50:48;5.90;;;4.07;;
20458;SDS011;10388;52.314;7.938;2022-09-12T19:53:19;3.87;;;3.47;;
20458;SDS011;10388;52.314;7.938;2022-09-12T19:55:50;4.00;;;3.40;;
20458;SDS011;10388;52.314;7.938;2022-09-12T19:58:20;5.70;;;3.47;;
20458;SDS011;10388;52.314;7.938;2022-09-12T20:00:51;3.90;;;3.50;;
20458;SDS011;10388;52.314;7.938;2022-09-12T20:03:22;4.00;;;3.47;;
20458;SDS011;10388;52.314;7.938;2022-09-12T20:05:52;4.90;;;3.77;;
20458;SDS011;10388;52.314;7.938;2022-09-12T20:08:23;5.07;;;3.67;;
20458;SDS011;10388;52.314;7.938;2022-09-12T20:10:54;4.50;;;3.43;;
20458;SDS011;10388;52.314;7.938;2022-09-12T20:13:25;7.87;;;3.50;;
20458;SDS011;10388;52.314;7.938;2022-09-12T20:15:55;6.73;;;3.73;;
20458;SDS011;10388;52.314;7.938;2022-09-12T20:18:34;5.30;;;3.67;;
20458;SDS011;10388;52.314;7.938;2022-09-12T20:21:06;4.60;;;3.57;;
20458;SDS011;10388;52.314;7.938;2022-09-12T20:23:38;4.07;;;3.67;;
20458;SDS011;10388;52.314;7.938;2022-09-12T20:26:10;4.10;;;3.33;;
20458;SDS011;10388;52.314;7.938;2022-09-12T20:28:41;5.30;;;3.90;;
20458;SDS011;10388;52.314;7.938;2022-09-12T20:31:12;4.10;;;3.70;;
20458;SDS011;10388;52.314;7.938;2022-09-12T20:33:44;4.57;;;3.37;;